Flight Track Log - Related Links

Times and Time Zones

All times are in EDT time to prevent confusion due to time zone crossing. See the UAL907 flight status page for this flight to view local times or setup timezone preferences in your user account.

Time Position Orientation Groundspeed Altitude Reporting Facility
EDT Latitude Longitude Course Direction KTS MPH feet Rate Location/Type
Sat 07:20:44 PM 41.9800 -87.9120 329° Northwest 20 23  Level FlightAware ADS-B
Sat 07:20:58 PM 41.9800 -87.9130 270° West 24 28 80 Level FlightAware ADS-B
Sat 07:22:24 PM 41.9770 -87.9150 206° Southwest 23 26 82 Level FlightAware ADS-B
Sat 07:23:19 PM 41.9800 -87.9170 334° Northwest 34 39 90 Level FlightAware ADS-B
Sat 07:23:48 PM 41.9810 -87.9180 323° Northwest 16 18 97 Level FlightAware ADS-B
Sat 07:24:10 PM 41.9830 -87.9180 360° North 33 38 101 Level FlightAware ADS-B
Sat 07:24:42 PM 41.9850 -87.9180 360° North 32 37 104 Level FlightAware ADS-B
Sat 07:25:11 PM 41.9860 -87.9180 360° North 27 31 109 Level FlightAware ADS-B
Sat 07:25:34 PM 41.9870 -87.9170 37° Northeast 28 32 114 Level FlightAware ADS-B
Sat 07:26:01 PM 41.9870 -87.9150 90° East 28 32 119 Level FlightAware ADS-B
Sat 07:26:24 PM 41.9880 -87.9140 37° Northeast 34 39 124 Level FlightAware ADS-B
Sat 07:26:36 PM 41.9880 -87.9130 90° East 18 21 129 Level FlightAware ADS-B
Sat 07:27:06 PM 41.9900 -87.9110 37° Northeast 18 21 132 Level FlightAware ADS-B
Sat 07:27:34 PM 41.9920 -87.9090 37° Northeast 16 18 140 Level FlightAware ADS-B
Sat 07:27:47 PM 41.9930 -87.9090 360° North 32 37 148 Level FlightAware ADS-B
Sat 07:28:15 PM 41.9940 -87.9080 37° Northeast 27 31 152 Level FlightAware ADS-B
Sat 07:28:42 PM 41.9950 -87.9090 323° Northwest 34 39 162 Level FlightAware ADS-B
Sat 07:29:24 PM 41.9980 -87.9130 315° West 34 39 172 Level FlightAware ADS-B
Sat 07:30:06 PM 41.9990 -87.9140 323° Northwest 28 32 191 Level FlightAware ADS-B
Sat 07:30:46 PM 42.0000 -87.9150 323° Northwest 23 26 216 Level FlightAware ADS-B
Sat 07:33:00 PM 42.2792 -87.8014 14° North  Level FlightAware Approximate
Sat 07:34:00 PM 42.4084 -87.7583 14° North  Level FlightAware Approximate
Sat 07:35:00 PM 42.5382 -87.7196 10° North  Level FlightAware Approximate
Sat 07:35:40 PM 41.9770 -87.8830 10° North 184 212 1,200  Level FlightAware ADS-B
Sat 07:35:58 PM 41.9730 -87.8620 104° East 198 228 1,900 1,565 Climbing FlightAware ADS-B
Sat 07:36:26 PM 41.9730 -87.8230 90° East 236 272 2,400 1,224 Climbing FlightAware ADS-B
Sat 07:36:47 PM 41.9720 -87.7940 93° East 249 287 2,900 1,500 Climbing FlightAware ADS-B
Sat 07:37:18 PM 41.9730 -87.7410 89° East 276 318 3,700 1,527 Climbing FlightAware ADS-B
Sat 07:37:42 PM 41.9720 -87.6980 92° East 298 343 4,300 1,773 Climbing FlightAware ADS-B
Sat 07:38:02 PM 41.9780 -87.6620 77° East 300 345 5,000 2,500 Climbing FlightAware ADS-B
Sat 07:38:30 PM 41.9940 -87.6140 66° East 297 342 6,300 2,700 Climbing FlightAware ADS-B
Sat 07:38:42 PM 42.0040 -87.5970 52° Northeast 293 337 6,800 2,357 Climbing FlightAware ADS-B
Sat 07:38:58 PM 42.0230 -87.5850 25° Northeast 289 333 7,400 2,250 Climbing FlightAware ADS-B
Sat 07:39:06 PM 42.0350 -87.5830 North 289 333 7,700 2,143 Climbing FlightAware ADS-B
Sat 07:39:26 PM 42.0600 -87.5920 345° North 288 331 8,400 2,125 Climbing FlightAware ADS-B
Sat 07:39:54 PM 42.0910 -87.6170 329° Northwest 292 336 9,400 2,250 Climbing FlightAware ADS-B
Sat 07:40:38 PM 42.1420 -87.6610 327° Northwest 294 338 11,100 2,174 Climbing FlightAware ADS-B
Sat 07:41:03 PM 42.1730 -87.6800 336° Northwest 297 342 11,900 2,149 Climbing FlightAware ADS-B
Sat 07:41:45 PM 42.2320 -87.6830 358° North 301 346 13,500 2,113 Climbing FlightAware ADS-B
Sat 07:42:14 PM 42.2720 -87.6800 North 303 349 14,400 1,808 Climbing FlightAware ADS-B
Sat 07:42:58 PM 42.3360 -87.6730 North 309 356 15,700 1,814 Climbing FlightAware ADS-B
Sat 07:43:40 PM 42.3960 -87.6690 North 313 360 17,000 1,575 Climbing FlightAware ADS-B
Sat 07:44:18 PM 42.4520 -87.6640 North 327 376 17,800 940 Climbing FlightAware ADS-B
Sat 07:45:03 PM 42.5230 -87.6590 North 358 412 18,300 558 Climbing FlightAware ADS-B
Sat 07:45:44 PM 42.5920 -87.6530 North 387 445 18,600 488 Climbing FlightAware ADS-B
Sat 07:46:29 PM 42.6780 -87.6460 North 416 479 19,000 714 Climbing FlightAware ADS-B
Sat 07:47:08 PM 42.7550 -87.6400 North 433 498 19,600 1,027 Climbing FlightAware ADS-B
Sat 07:48:20 PM 42.8810 -87.5500 28° Northeast 456 525 20,900 1,221 Climbing FlightAware ADS-B
Sat 07:49:01 PM 42.9360 -87.4640 49° Northeast 459 528 21,900 1,595 Climbing FlightAware ADS-B
Sat 07:49:39 PM 42.9900 -87.3780 49° Northeast 459 528 23,000 1,412 Climbing FlightAware ADS-B
Sat 07:50:26 PM 43.0540 -87.2750 50° Northeast 467 537 23,900 1,116 Climbing FlightAware ADS-B
Sat 07:51:05 PM 43.1100 -87.1860 49° Northeast 475 547 24,600 1,000 Climbing FlightAware ADS-B
Sat 07:51:50 PM 43.1760 -87.0810 49° Northeast 484 557 25,300 918 Climbing FlightAware ADS-B
Sat 07:52:30 PM 43.2350 -86.9870 49° Northeast 491 565 25,900 911 Climbing FlightAware ADS-B
Sat 07:53:09 PM 43.2920 -86.8960 49° Northeast 497 572 26,500 929 Climbing FlightAware ADS-B
Sat 07:53:54 PM 43.3600 -86.7860 50° Northeast 507 583 27,200 897 Climbing FlightAware ADS-B
Sat 07:54:36 PM 43.4250 -86.6820 49° Northeast 514 592 27,800 966 Climbing FlightAware ADS-B
Sat 07:55:21 PM 43.4940 -86.5680 50° Northeast 516 594 28,600 977 Climbing FlightAware ADS-B
Sat 07:56:02 PM 43.5570 -86.4670 49° Northeast 519 597 29,200 963 Climbing FlightAware ADS-B
Sat 07:56:42 PM 43.6190 -86.3640 50° Northeast 520 598 29,900 1,271 Climbing FlightAware ADS-B
Sat 07:57:27 PM 43.6890 -86.2500 50° Northeast 516 594 31,000 1,186 Climbing FlightAware ADS-B
Sat 07:58:08 PM 43.7530 -86.1450 50° Northeast 517 595 31,600 963 Climbing FlightAware ADS-B
Sat 07:58:48 PM 43.8140 -86.0440 50° Northeast 516 594 32,300 929 Climbing FlightAware ADS-B
Sat 07:59:32 PM 43.8810 -85.9330 50° Northeast 517 595 32,900 776 Climbing FlightAware ADS-B
Sat 08:00:13 PM 43.9440 -85.8270 50° Northeast 520 598 33,400 750 Climbing FlightAware ADS-B
Sat 08:00:52 PM 43.9980 -85.7240 54° Northeast 518 596 33,900 786 Climbing FlightAware ADS-B
Sat 08:01:37 PM 44.0360 -85.5820 70° East 514 592 34,500 733 Climbing FlightAware ADS-B
Sat 08:02:22 PM 44.0640 -85.4410 75° East 515 593 35,000 353 Climbing FlightAware ADS-B
Sat 08:03:02 PM 44.0890 -85.3140 75° East 519 597 35,000  Level FlightAware ADS-B
Sat 08:03:45 PM 44.1160 -85.1740 75° East 518 596 35,000  Level FlightAware ADS-B
Sat 08:04:26 PM 44.1420 -85.0440 74° East 517 595 35,000  Level FlightAware ADS-B
Sat 08:05:10 PM 44.1690 -84.9020 75° East 516 594 35,000  Level FlightAware ADS-B
Sat 08:05:50 PM 44.1940 -84.7750 75° East 516 594 35,000  Level FlightAware ADS-B
Sat 08:06:32 PM 44.2200 -84.6390 75° East 515 593 35,000  Level FlightAware ADS-B
Sat 08:07:15 PM 44.2460 -84.5010 75° East 516 594 35,000  Level FlightAware ADS-B
Sat 08:07:56 PM 44.2700 -84.3710 76° East 516 594 35,000  Level FlightAware ADS-B
Sat 08:08:36 PM 44.2950 -84.2410 75° East 516 594 35,000  Level FlightAware ADS-B
Sat 08:09:19 PM 44.3200 -84.1060 75° East 516 594 35,000  Level FlightAware ADS-B
Sat 08:09:58 PM 44.3430 -83.9780 76° East 516 594 35,000  Level FlightAware ADS-B
Sat 08:10:46 PM 44.3720 -83.8240 75° East 517 595 35,000  Level FlightAware ADS-B
Sat 08:11:27 PM 44.3940 -83.7050 75° East 516 594 35,000  Level FlightAware ADS-B
Sat 08:12:02 PM 44.4160 -83.5780 76° East 516 594 35,000  Level FlightAware ADS-B
Sat 08:12:49 PM 44.4440 -83.4240 76° East 517 595 35,000  Level FlightAware ADS-B
Sat 08:13:29 PM 44.4730 -83.2960 72° East 516 594 35,000  Level FlightAware ADS-B
Sat 08:14:14 PM 44.5050 -83.1580 72° East 515 593 35,000  Level FlightAware ADS-B
Sat 08:14:55 PM 44.5370 -83.0240 71° East 516 594 35,000  Level FlightAware ADS-B
Sat 08:15:38 PM 44.5690 -82.8910 71° East 516 594 35,000  Level FlightAware ADS-B
Sat 08:16:18 PM 44.5990 -82.7610 72° East 517 595 35,000  Level FlightAware ADS-B
Sat 08:17:04 PM 44.6320 -82.6200 72° East 519 597 35,000  Level FlightAware ADS-B
Sat 08:17:45 PM 44.6530 -82.5270 72° East 519 597 35,000  Level FlightAware ADS-B
Sat 08:18:21 PM 44.6820 -82.4000 72° East 519 597 35,000  Level FlightAware ADS-B
Sat 08:19:04 PM 44.7210 -82.2300 72° East 520 598 35,000  Level FlightAware ADS-B
Sat 08:19:49 PM 44.7530 -82.0870 72° East 521 600 35,000  Level FlightAware ADS-B
Sat 08:20:28 PM 44.7820 -81.9630 72° East 520 598 35,000  Level FlightAware ADS-B
Sat 08:21:12 PM 44.8120 -81.8290 72° East 520 598 35,000  Level FlightAware ADS-B
Sat 08:21:58 PM 44.8410 -81.6970 73° East 521 600 35,000  Level FlightAware ADS-B
Sat 08:22:33 PM 44.8680 -81.5760 72° East 521 600 35,000  Level FlightAware ADS-B
Sat 08:23:21 PM 44.9060 -81.4020 73° East 522 601 35,000  Level FlightAware ADS-B
Sat 08:23:58 PM 44.9300 -81.2900 73° East 522 601 35,000  Level FlightAware ADS-B
Sat 08:24:38 PM 44.9580 -81.1640 73° East 520 598 35,000  Level FlightAware ADS-B
Sat 08:25:23 PM 44.9900 -81.0150 73° East 519 597 35,000  Level FlightAware ADS-B
Sat 08:26:04 PM 45.0170 -80.8850 74° East 519 597 35,000  Level FlightAware ADS-B
Sat 08:26:48 PM 45.0490 -80.7390 73° East 518 596 35,000  Level FlightAware ADS-B
Sat 08:27:33 PM 45.0780 -80.5970 74° East 520 598 35,000  Level FlightAware ADS-B
Sat 08:28:08 PM 45.1030 -80.4780 73° East 521 600 35,000  Level FlightAware ADS-B
Sat 08:28:53 PM 45.1340 -80.3320 73° East 522 601 35,000  Level FlightAware ADS-B
Sat 08:29:33 PM 45.1600 -80.2040 74° East 524 603 35,000  Level FlightAware ADS-B
Sat 08:30:18 PM 45.1920 -80.0520 73° East 522 601 35,000  Level FlightAware ADS-B
Sat 08:30:58 PM 45.2180 -79.9220 74° East 523 602 35,000  Level FlightAware ADS-B
Sat 08:31:38 PM 45.2450 -79.7910 74° East 522 601 35,000  Level FlightAware ADS-B
Sat 08:32:23 PM 45.2740 -79.6440 74° East 521 600 35,000  Level FlightAware ADS-B
Sat 08:33:08 PM 45.3040 -79.4950 74° East 520 598 35,000  Level FlightAware ADS-B
Sat 08:33:49 PM 45.3290 -79.3710 74° East 519 597 35,000  Level FlightAware ADS-B
Sat 08:34:33 PM 45.3590 -79.2180 74° East 518 596 35,000  Level FlightAware ADS-B
Sat 08:35:13 PM 45.3850 -79.0870 74° East 516 594 35,000  Level FlightAware ADS-B
Sat 08:35:53 PM 45.4090 -78.9590 75° East 516 594 35,000  Level FlightAware ADS-B
Sat 08:36:38 PM 45.4390 -78.8080 74° East 517 595 35,000  Level FlightAware ADS-B
Sat 08:37:13 PM 45.4580 -78.7040 75° East 517 595 35,000  Level FlightAware ADS-B
Sat 08:37:58 PM 45.4870 -78.5550 74° East 517 595 35,000  Level FlightAware ADS-B
Sat 08:38:43 PM 45.5160 -78.4020 75° East 519 597 35,000  Level FlightAware ADS-B
Sat 08:39:28 PM 45.5430 -78.2580 75° East 520 598 35,000  Level FlightAware ADS-B
Sat 08:40:08 PM 45.5690 -78.1170 75° East 520 598 35,000  Level FlightAware ADS-B
Sat 08:40:48 PM 45.5930 -77.9850 75° East 521 600 35,000  Level FlightAware ADS-B
Sat 08:41:33 PM 45.6190 -77.8470 75° East 522 601 35,000  Level FlightAware ADS-B
Sat 08:42:13 PM 45.6430 -77.7110 76° East 521 600 35,000  Level FlightAware ADS-B
Sat 08:42:53 PM 45.6690 -77.5710 75° East 523 602 35,000  Level FlightAware ADS-B
Sat 08:43:38 PM 45.6930 -77.4190 77° East 525 604 35,000  Level FlightAware ADS-B
Sat 08:44:18 PM 45.7140 -77.2860 77° East 526 605 35,000  Level FlightAware ADS-B
Sat 08:45:03 PM 45.7380 -77.1290 78° East 526 605 35,000  Level FlightAware ADS-B
Sat 08:45:43 PM 45.7570 -77.0060 77° East 526 605 35,000  Level FlightAware ADS-B
Sat 08:46:23 PM 45.7800 -76.8580 77° East 527 606 35,000  Level FlightAware ADS-B
Sat 08:47:08 PM 45.8040 -76.7070 77° East 528 608 35,000  Level FlightAware ADS-B
Sat 08:47:48 PM 45.8250 -76.5690 78° East 529 609 35,000  Level FlightAware ADS-B
Sat 08:48:33 PM 45.8480 -76.4170 78° East 529 609 35,000  Level FlightAware ADS-B
Sat 08:49:13 PM 45.8680 -76.2780 78° East 530 610 35,000  Level FlightAware ADS-B
Sat 08:49:53 PM 45.8890 -76.1410 78° East 531 611 35,000  Level FlightAware ADS-B
Sat 08:50:38 PM 45.9120 -75.9830 78° East 532 612 35,000  Level FlightAware ADS-B
Sat 08:51:18 PM 45.9330 -75.8450 78° East 531 611 35,000  Level FlightAware ADS-B
Sat 08:52:01 PM 45.9600 -75.6920 76° East 530 610 35,000  Level FlightAware ADS-B
Sat 08:52:40 PM 45.9840 -75.5580 76° East 530 610 35,000  Level FlightAware ADS-B
Sat 08:53:25 PM 46.0100 -75.4040 76° East 531 611 35,000  Level FlightAware ADS-B
Sat 08:54:06 PM 46.0320 -75.2700 77° East 531 611 35,000  Level FlightAware ADS-B
Sat 08:54:45 PM 46.0550 -75.1340 76° East 531 611 35,000  Level FlightAware ADS-B
Sat 08:55:35 PM 46.0840 -74.9590 77° East 529 609 35,000  Level FlightAware ADS-B
Sat 08:56:15 PM 46.1060 -74.8220 77° East 529 609 35,000  Level FlightAware ADS-B
Sat 08:56:55 PM 46.1280 -74.6850 77° East 527 606 35,000  Level FlightAware ADS-B
Sat 08:57:35 PM 46.1500 -74.5510 77° East 526 605 35,000  Level FlightAware ADS-B
Sat 08:58:35 PM 46.1830 -74.3420 77° East 527 606 35,000  Level FlightAware ADS-B
Sat 08:59:19 PM 46.2070 -74.1930 77° East 527 606 35,000  Level FlightAware ADS-B
Sat 09:00:00 PM 46.2290 -74.0530 77° East 526 605 35,000  Level FlightAware ADS-B
Sat 09:00:39 PM 46.2500 -73.9190 77° East 526 605 35,000  Level FlightAware ADS-B
Sat 09:01:24 PM 46.2730 -73.7650 78° East 526 605 35,000  Level FlightAware ADS-B
Sat 09:02:06 PM 46.2950 -73.6200 78° East 526 605 35,000  Level FlightAware ADS-B
Sat 09:02:46 PM 46.3160 -73.4820 78° East 526 605 35,000  Level FlightAware ADS-B
Sat 09:03:24 PM 46.3350 -73.3550 78° East 525 604 35,000  Level FlightAware ADS-B
Sat 09:04:10 PM 46.3590 -73.1950 78° East 526 605 35,000  Level FlightAware ADS-B
Sat 09:04:54 PM 46.3810 -73.0460 78° East 527 606 35,000  Level FlightAware ADS-B
Sat 09:05:34 PM 46.4020 -72.9050 78° East 527 606 35,000  Level FlightAware ADS-B
Sat 09:06:18 PM 46.4230 -72.7560 78° East 526 605 35,000  Level FlightAware ADS-B
Sat 09:06:58 PM 46.4430 -72.6150 78° East 524 603 35,000  Level FlightAware ADS-B
Sat 09:07:51 PM 46.4690 -72.4340 78° East 527 606 35,000  Level FlightAware ADS-B
Sat 09:08:36 PM 46.4900 -72.2790 79° East 526 605 35,000  Level FlightAware ADS-B
Sat 09:09:16 PM 46.5100 -72.1400 78° East 526 605 35,000  Level FlightAware ADS-B
Sat 09:10:01 PM 46.5310 -71.9850 79° East 525 604 35,000  Level FlightAware ADS-B
Sat 09:10:36 PM 46.5470 -71.8650 79° East 524 603 35,000  Level FlightAware ADS-B
Sat 09:11:22 PM 46.5640 -71.7370 79° East 522 601 35,000  Level FlightAware ADS-B
Sat 09:12:01 PM 46.5850 -71.5830 79° East 523 602 35,000  Level FlightAware ADS-B
Sat 09:12:46 PM 46.6060 -71.4210 79° East 524 603 35,000  Level FlightAware ADS-B
Sat 09:13:28 PM 46.6250 -71.2750 79° East 525 604 35,000  Level FlightAware ADS-B
Sat 09:14:06 PM 46.6420 -71.1450 79° East 526 605 35,000  Level FlightAware ADS-B
Sat 09:14:53 PM 46.6630 -70.9790 79° East 527 606 35,000  Level FlightAware ADS-B
Sat 09:15:38 PM 46.6810 -70.8350 80° East 529 609 35,000  Level FlightAware ADS-B
Sat 09:16:18 PM 46.7000 -70.6840 80° East 529 609 35,000  Level FlightAware ADS-B
Sat 09:16:58 PM 46.7170 -70.5440 80° East 530 610 35,000  Level FlightAware ADS-B
Sat 09:17:38 PM 46.7340 -70.4040 80° East 530 610 35,000  Level FlightAware ADS-B
Sat 09:18:23 PM 46.7530 -70.2450 80° East 532 612 35,000  Level FlightAware ADS-B
Sat 09:19:08 PM 46.7720 -70.0920 80° East 533 613 35,000  Level FlightAware ADS-B
Sat 09:19:43 PM 46.7860 -69.9720 80° East 534 615 35,000  Level FlightAware ADS-B
Sat 09:20:28 PM 46.8050 -69.8070 80° East 535 616 35,000  Level FlightAware ADS-B
Sat 09:21:08 PM 46.8220 -69.6610 80° East 535 616 35,000  Level FlightAware ADS-B
Sat 09:21:56 PM 46.8420 -69.4880 80° East 537 618 35,000  Level FlightAware ADS-B
Sat 09:22:36 PM 46.8560 -69.3570 81° East 538 619 35,000  Level FlightAware ADS-B
Sat 09:23:11 PM 46.8710 -69.2230 81° East 538 619 35,000  Level FlightAware ADS-B
Sat 09:24:01 PM 46.8910 -69.0460 81° East 539 620 35,000  Level FlightAware ADS-B
Sat 09:24:38 PM 46.9040 -68.9200 81° East 539 620 35,000  Level FlightAware ADS-B
Sat 09:25:18 PM 46.9190 -68.7800 81° East 540 621 35,000  Level FlightAware ADS-B
Sat 09:26:08 PM 46.9390 -68.5910 81° East 539 620 35,000  Level FlightAware ADS-B
Sat 09:26:50 PM 46.9540 -68.4560 81° East 539 620 35,000  Level FlightAware ADS-B
Sat 09:27:24 PM 46.9650 -68.3520 81° East 539 620 35,000  Level FlightAware ADS-B
Sat 09:28:08 PM 46.9830 -68.1640 82° East 534 615 35,000  Level FlightAware ADS-B
Sat 09:28:57 PM 47.0020 -67.9790 81° East 533 613 35,000  Level FlightAware ADS-B
Sat 09:29:51 PM 47.0190 -67.8050 82° East 533 613 35,000  Level FlightAware ADS-B
Sat 09:30:46 PM 47.0390 -67.5950 82° East 529 609 35,000  Level FlightAware ADS-B
Sat 09:31:30 PM 47.0540 -67.4350 82° East 526 605 35,000  Level FlightAware ADS-B
Sat 09:32:10 PM 47.0670 -67.2980 82° East 526 605 35,000  Level FlightAware ADS-B
Sat 09:33:08 PM 47.0840 -67.1110 82° East 525 604 35,000  Level FlightAware ADS-B
Sat 09:33:45 PM 47.0950 -67.0000 82° East 525 604 35,000  Level FlightAware ADS-B
Sat 09:34:33 PM 47.1090 -66.8560 82° East 525 604 35,000  Level FlightAware ADS-B
Sat 09:35:11 PM 47.1200 -66.7420 82° East 525 604 35,000  Level FlightAware ADS-B
Sat 09:35:58 PM 47.1330 -66.6000 82° East 525 604 35,000  Level FlightAware ADS-B
Sat 09:36:34 PM 47.1440 -66.4920 81° East 525 604 35,000  Level FlightAware ADS-B
Sat 09:37:22 PM 47.1570 -66.3480 82° East 525 604 35,000  Level FlightAware ADS-B
Sat 09:37:58 PM 47.1680 -66.2400 81° East 525 604 35,000  Level FlightAware ADS-B
Sat 09:39:00 PM 47.1850 -66.0530 82° East 525 604 35,000  Level FlightAware ADS-B
Sat 09:39:37 PM 47.1960 -65.9420 82° East 525 604 35,000  Level FlightAware ADS-B
Sat 09:40:14 PM 47.2070 -65.8310 82° East 525 604 35,000  Level FlightAware ADS-B
Sat 09:41:02 PM 47.2200 -65.6860 82° East 525 604 35,000  Level FlightAware ADS-B
Sat 09:41:38 PM 47.2310 -65.5780 81° East 525 604 35,000  Level FlightAware ADS-B
Sat 09:42:27 PM 47.2450 -65.4300 82° East 525 604 35,000  Level FlightAware ADS-B
Sat 09:43:10 PM 47.2500 -64.9667 82° East 530 610 35,000  Level Gander Center
Sat 09:44:10 PM 47.2500 -64.7833 90° East 520 598 35,000  Level Gander Center
Sat 09:45:10 PM 47.2667 -64.5500 84° East 520 598 35,000  Level Gander Center
Sat 09:46:10 PM 47.2833 -64.3333 83° East 520 598 35,000  Level Gander Center
Sat 09:47:10 PM 47.3000 -64.1167 83° East 520 598 35,000  Level Gander Center
Sat 09:48:10 PM 47.3167 -63.9167 83° East 520 598 35,000  Level Gander Center
Sat 09:49:10 PM 47.3167 -63.7000 90° East 520 598 35,000  Level Gander Center
Sat 09:50:10 PM 47.3333 -63.5000 83° East 520 598 35,000  Level Gander Center
Sat 09:51:10 PM 47.3500 -63.2833 83° East 520 598 35,000  Level Gander Center
Sat 09:52:10 PM 47.3667 -63.0500 84° East 520 598 35,000  Level Gander Center
Sat 09:53:10 PM 47.3667 -62.8667 90° East 520 598 35,000  Level Gander Center
Sat 09:58:17 PM 47.4440 -61.7560 90° East 525 604 35,000  Level FlightAware ADS-B
Sat 09:58:57 PM 47.4500 -61.6340 86° East 525 604 35,000  Level FlightAware ADS-B
Sat 09:59:45 PM 47.4570 -61.4880 86° East 525 604 35,000  Level FlightAware ADS-B
Sat 10:00:41 PM 47.4660 -61.2540 87° East 524 603 35,000  Level FlightAware ADS-B
Sat 10:01:19 PM 47.4710 -61.1030 87° East 525 604 35,000  Level FlightAware ADS-B
Sat 10:02:03 PM 47.4770 -60.9590 86° East 525 604 35,000  Level FlightAware ADS-B
Sat 10:02:39 PM 47.4820 -60.8490 86° East 525 604 35,000  Level FlightAware ADS-B
Sat 10:03:42 PM 47.4910 -60.6570 86° East 525 604 35,000  Level FlightAware ADS-B
Sat 10:04:16 PM 47.4960 -60.5540 86° East 525 604 35,000  Level FlightAware ADS-B
Sat 10:05:03 PM 47.4980 -60.3080 89° East 524 603 35,000  Level FlightAware ADS-B
Sat 10:05:43 PM 47.5030 -60.1640 87° East 525 604 35,000  Level FlightAware ADS-B
Sat 10:06:32 PM 47.5080 -60.0150 87° East 525 604 35,000  Level FlightAware ADS-B
Sat 10:07:08 PM 47.5120 -59.9050 87° East 525 604 35,000  Level FlightAware ADS-B
Sat 10:07:55 PM 47.5160 -59.6900 88° East 528 608 35,000  Level FlightAware ADS-B
Sat 10:08:32 PM 47.5190 -59.5820 88° East 528 608 35,000  Level FlightAware ADS-B
Sat 10:09:32 PM 47.5250 -59.3980 87° East 528 608 35,000  Level FlightAware ADS-B
Sat 10:10:15 PM 47.5270 -59.1830 89° East 526 605 35,000  Level FlightAware ADS-B
Sat 10:10:55 PM 47.5300 -59.0390 88° East 526 605 35,000  Level FlightAware ADS-B
Sat 10:11:30 PM 47.5330 -58.9300 88° East 527 606 35,000  Level FlightAware ADS-B
Sat 10:12:35 PM 47.5370 -58.7160 88° East 527 606 35,000  Level FlightAware ADS-B
Sat 10:13:13 PM 47.5390 -58.5600 89° East 527 606 35,000  Level FlightAware ADS-B
Sat 10:13:55 PM 47.5410 -58.4050 89° East 528 608 35,000  Level FlightAware ADS-B
Sat 10:14:50 PM 47.5440 -58.2140 89° East 529 609 35,000  Level FlightAware ADS-B
Sat 10:15:35 PM 47.5460 -58.0350 89° East 529 609 35,000  Level FlightAware ADS-B
Sat 10:16:15 PM 47.5470 -57.8890 89° East 529 609 35,000  Level FlightAware ADS-B
Sat 10:17:00 PM 47.5540 -57.7260 86° East 526 605 35,000  Level FlightAware ADS-B
Sat 10:17:40 PM 47.5640 -57.5980 83° East 525 604 35,000  Level FlightAware ADS-B
Sat 10:18:35 PM 47.5820 -57.3870 83° East 525 604 35,000  Level FlightAware ADS-B
Sat 10:19:15 PM 47.5940 -57.2470 83° East 524 603 35,000  Level FlightAware ADS-B
Sat 10:19:55 PM 47.6060 -57.1080 83° East 524 603 35,000  Level FlightAware ADS-B
Sat 10:20:40 PM 47.6210 -56.9450 82° East 522 601 35,000  Level FlightAware ADS-B
Sat 10:21:25 PM 47.6340 -56.7860 83° East 523 602 35,000  Level FlightAware ADS-B
Sat 10:22:05 PM 47.6460 -56.6460 83° East 521 600 35,000  Level FlightAware ADS-B
Sat 10:22:45 PM 47.6580 -56.5050 83° East 520 598 35,000  Level FlightAware ADS-B
Sat 10:23:30 PM 47.6710 -56.3430 83° East 520 598 35,000  Level FlightAware ADS-B
Sat 10:24:15 PM 47.6830 -56.1860 83° East 519 597 35,000  Level FlightAware ADS-B
Sat 10:24:55 PM 47.6950 -56.0410 83° East 519 597 35,000  Level FlightAware ADS-B
Sat 10:25:35 PM 47.7050 -55.9020 84° East 519 597 35,000  Level FlightAware ADS-B
Sat 10:26:20 PM 47.7170 -55.7420 84° East 521 600 35,000  Level FlightAware ADS-B
Sat 10:27:00 PM 47.7280 -55.6020 83° East 520 598 35,000  Level FlightAware ADS-B
Sat 10:27:45 PM 47.7400 -55.4390 84° East 520 598 35,000  Level FlightAware ADS-B
Sat 10:28:25 PM 47.7500 -55.2980 84° East 520 598 35,000  Level FlightAware ADS-B
Sat 10:29:05 PM 47.7600 -55.1550 84° East 522 601 35,000  Level FlightAware ADS-B
Sat 10:29:50 PM 47.7710 -54.9950 84° East 523 602 35,000  Level FlightAware ADS-B
Sat 10:30:30 PM 47.7800 -54.8520 85° East 522 601 35,000  Level FlightAware ADS-B
Sat 10:31:11 PM 47.7900 -54.7100 84° East 522 601 35,000  Level FlightAware ADS-B
Sat 10:31:55 PM 47.8000 -54.5500 85° East 523 602 35,000  Level FlightAware ADS-B
Sat 10:32:40 PM 47.8110 -54.3890 84° East 523 602 35,000  Level FlightAware ADS-B
Sat 10:33:20 PM 47.8200 -54.2460 85° East 523 602 35,000  Level FlightAware ADS-B
Sat 10:34:00 PM 47.8280 -54.1030 85° East 522 601 35,000  Level FlightAware ADS-B
Sat 10:34:45 PM 47.8380 -53.9430 85° East 523 602 35,000  Level FlightAware ADS-B
Sat 10:35:25 PM 47.8460 -53.8030 85° East 521 600 35,000  Level FlightAware ADS-B
Sat 10:35:59 PM 47.8520 -53.7000 85° East 521 600 35,000  Level FlightAware ADS-B
Sat 10:36:41 PM 47.8610 -53.5290 85° East 520 598 35,000  Level FlightAware ADS-B
Sat 10:37:23 PM 47.8700 -53.3800 85° East 520 598 35,000  Level FlightAware ADS-B
Sat 10:38:05 PM 47.8780 -53.2300 85° East 520 598 35,000 71 Level FlightAware ADS-B
Sat 10:38:47 PM 47.8850 -53.0800 86° East 521 600 35,100 519 Climbing FlightAware ADS-B
Sat 10:39:26 PM 47.8920 -52.9420 86° East 521 600 35,700 750 Climbing FlightAware ADS-B
Sat 10:40:15 PM 47.9010 -52.7660 86° East 522 601 36,200 682 Climbing FlightAware ADS-B
Sat 10:40:54 PM 47.9070 -52.6300 86° East 523 602 36,700 571 Climbing FlightAware ADS-B
Sat 10:41:39 PM 47.9150 -52.4650 86° East 521 600 37,000 207 Climbing FlightAware ADS-B
Sat 10:42:21 PM 47.9220 -52.3150 86° East 520 598 37,000  Level FlightAware ADS-B
Sat 10:42:59 PM 47.9280 -52.1790 86° East 519 597 37,000  Level FlightAware ADS-B
Sat 10:43:43 PM 47.9340 -52.0230 87° East 518 596 37,000  Level FlightAware ADS-B
Sat 10:44:23 PM 47.9400 -51.8840 86° East 516 594 37,000  Level FlightAware ADS-B
Sat 10:45:08 PM 47.9460 -51.7240 87° East 516 594 37,000  Level FlightAware ADS-B
Sat 10:45:47 PM 47.9520 -51.5830 86° East 515 593 37,000  Level FlightAware ADS-B
Sat 10:46:27 PM 47.9570 -51.4620 86° East 515 593 37,000  Level FlightAware ADS-B
Sat 10:47:13 PM 47.9630 -51.3230 86° East 515 593 37,000  Level FlightAware ADS-B
Sat 10:47:50 PM 47.9690 -51.2110 85° East 515 593 37,000  Level FlightAware ADS-B
Sat 10:48:39 PM 47.9750 -51.0630 86° East 515 593 37,000  Level FlightAware ADS-B
Sat 10:49:13 PM 47.9800 -50.9610 86° East 515 593 37,000  Level FlightAware ADS-B
Sat 10:50:01 PM 47.9870 -50.8160 86° East 515 593 37,000  Level FlightAware ADS-B
Sat 10:50:37 PM 47.9920 -50.7070 86° East 515 593 37,000  Level FlightAware ADS-B
Sat 10:51:25 PM 47.9990 -50.5620 86° East 515 593 37,000  Level FlightAware ADS-B
Sat 10:52:01 PM 48.0040 -50.4530 86° East 515 593 37,000  Level FlightAware ADS-B
Sat 10:52:51 PM 48.0110 -50.3030 86° East 515 593 37,000  Level FlightAware ADS-B
Sat 10:53:27 PM 48.0160 -50.1940 86° East 515 593 37,000  Level FlightAware ADS-B
Sat 10:54:28 PM 48.0250 -50.0100 86° East 515 593 37,000  Level FlightAware ADS-B
Sat 10:55:04 PM 48.0300 -49.9010 86° East 515 593 37,000  Level FlightAware ADS-B
Sat 10:55:54 PM 48.0370 -49.7500 86° East 515 593 37,000  Level FlightAware ADS-B
Sat 10:57:10 PM 48.2167 -49.2167 86° East 510 587 37,000  Level Gander Center
Sat 10:58:10 PM 48.3000 -49.0167 58° Northeast 500 575 37,000  Level Gander Center
Sat 10:59:10 PM 48.3667 -48.8500 59° Northeast 510 587 37,000  Level Gander Center
Sat 11:00:10 PM 48.4167 -48.6500 69° East 510 587 37,000  Level Gander Center
Sat 11:01:10 PM 48.4833 -48.4667 61° Northeast 510 587 37,000  Level Gander Center
Sat 11:02:10 PM 48.5500 -48.2667 63° Northeast 510 587 37,000  Level Gander Center
Sat 11:03:10 PM 48.6167 -48.0667 63° Northeast 510 587 37,000  Level Gander Center
Sat 11:04:10 PM 48.6667 -47.9000 66° East 510 587 37,000  Level Gander Center
Sat 11:05:10 PM 48.7333 -47.7000 63° Northeast 510 587 37,000  Level Gander Center
Sat 11:06:10 PM 48.8333 -47.5167 50° Northeast 520 598 37,000  Level Gander Center
Sat 11:07:10 PM 48.8667 -47.3333 74° East 520 598 37,000  Level Gander Center
Sat 11:08:10 PM 48.9333 -47.1333 63° Northeast 510 587 37,000  Level Gander Center
Sat 11:09:10 PM 49.0000 -46.9333 63° Northeast 510 587 37,000  Level Gander Center
Sat 11:11:00 PM 49.1081 -46.6050 63° Northeast  Level FlightAware Approximate
Sat 11:18:00 PM 49.5391 -45.2516 63° Northeast  Level FlightAware Approximate
Sat 11:19:00 PM 49.5994 -45.0563 64° Northeast  Level FlightAware Approximate
Sat 11:20:00 PM 49.6593 -44.8606 65° Northeast  Level FlightAware Approximate
Sat 11:21:00 PM 49.7189 -44.6643 65° Northeast  Level FlightAware Approximate
Sat 11:22:00 PM 49.7782 -44.4676 65° Northeast  Level FlightAware Approximate
Sat 11:23:00 PM 49.8371 -44.2704 65° Northeast  Level FlightAware Approximate
Sat 11:24:00 PM 49.8957 -44.0727 65° Northeast  Level FlightAware Approximate
Sat 11:25:00 PM 49.9540 -43.8746 65° Northeast  Level FlightAware Approximate
Sat 11:26:00 PM 50.0120 -43.6759 66° East  Level FlightAware Approximate
Sat 11:27:00 PM 50.0695 -43.4768 66° East  Level FlightAware Approximate
Sat 11:28:00 PM 50.1268 -43.2772 66° East  Level FlightAware Approximate
Sat 11:29:00 PM 50.1837 -43.0771 66° East  Level FlightAware Approximate
Sat 11:30:00 PM 50.2403 -42.8766 66° East  Level FlightAware Approximate
Sat 11:31:00 PM 50.2965 -42.6755 66° East  Level FlightAware Approximate
Sat 11:32:00 PM 50.3524 -42.4740 66° East  Level FlightAware Approximate
Sat 11:33:00 PM 50.4079 -42.2721 67° East  Level FlightAware Approximate
Sat 11:34:00 PM 50.4631 -42.0696 67° East  Level FlightAware Approximate
Sat 11:35:00 PM 50.5179 -41.8667 67° East  Level FlightAware Approximate
Sat 11:36:00 PM 50.5723 -41.6633 67° East  Level FlightAware Approximate
Sat 11:37:00 PM 50.6264 -41.4595 67° East  Level FlightAware Approximate
Sat 11:38:00 PM 50.6802 -41.2551 67° East  Level FlightAware Approximate
Sat 11:39:00 PM 50.7336 -41.0504 68° East  Level FlightAware Approximate
Sat 11:40:00 PM 50.7867 -40.8451 68° East  Level FlightAware Approximate
Sat 11:41:00 PM 50.8393 -40.6394 68° East  Level FlightAware Approximate
Sat 11:42:00 PM 50.8917 -40.4332 68° East  Level FlightAware Approximate
Sat 11:43:00 PM 50.9436 -40.2265 68° East  Level FlightAware Approximate
Sat 11:44:00 PM 50.9952 -40.0194 68° East  Level FlightAware Approximate
Sat 11:45:00 PM 51.0470 -39.8135 68° East  Level FlightAware Approximate
Sat 11:46:00 PM 51.0988 -39.6060 68° East  Level FlightAware Approximate
Sat 11:47:00 PM 51.1502 -39.3982 68° East  Level FlightAware Approximate
Sat 11:48:00 PM 51.2013 -39.1898 69° East  Level FlightAware Approximate
Sat 11:49:00 PM 51.2519 -38.9809 69° East  Level FlightAware Approximate
Sat 11:50:00 PM 51.3023 -38.7717 69° East  Level FlightAware Approximate
Sat 11:51:00 PM 51.3522 -38.5619 69° East  Level FlightAware Approximate
Sat 11:52:00 PM 51.4018 -38.3517 69° East  Level FlightAware Approximate
Sat 11:53:00 PM 51.4510 -38.1411 69° East  Level FlightAware Approximate
Sat 11:54:00 PM 51.4998 -37.9300 70° East  Level FlightAware Approximate
Sat 11:55:00 PM 51.5482 -37.7184 70° East  Level FlightAware Approximate
Sat 11:56:00 PM 51.5962 -37.5064 70° East  Level FlightAware Approximate
Sat 11:57:00 PM 51.6439 -37.2939 70° East  Level FlightAware Approximate
Sat 11:58:00 PM 51.6912 -37.0810 70° East  Level FlightAware Approximate
Sat 11:59:00 PM 51.7381 -36.8677 70° East  Level FlightAware Approximate
Sun 12:00:00 AM 51.7846 -36.6539 71° East  Level FlightAware Approximate
Sun 12:01:00 AM 51.8307 -36.4397 71° East  Level FlightAware Approximate
Sun 12:02:00 AM 51.8765 -36.2250 71° East  Level FlightAware Approximate
Sun 12:03:00 AM 51.9218 -36.0099 71° East  Level FlightAware Approximate
Sun 12:04:00 AM 51.9668 -35.7944 71° East  Level FlightAware Approximate
Sun 12:05:00 AM 52.0113 -35.5784 71° East  Level FlightAware Approximate
Sun 12:06:00 AM 52.0555 -35.3621 72° East  Level FlightAware Approximate
Sun 12:07:00 AM 52.0992 -35.1452 72° East  Level FlightAware Approximate
Sun 12:08:00 AM 52.1426 -34.9280 72° East  Level FlightAware Approximate
Sun 12:09:00 AM 52.1855 -34.7103 72° East  Level FlightAware Approximate
Sun 12:10:00 AM 52.2281 -34.4923 72° East  Level FlightAware Approximate
Sun 12:11:00 AM 52.2703 -34.2738 72° East  Level FlightAware Approximate
Sun 12:12:00 AM 52.3120 -34.0549 73° East  Level FlightAware Approximate
Sun 12:13:00 AM 52.3534 -33.8355 73° East  Level FlightAware Approximate
Sun 12:14:00 AM 52.3943 -33.6158 73° East  Level FlightAware Approximate
Sun 12:15:00 AM 52.4348 -33.3957 73° East  Level FlightAware Approximate
Sun 12:16:00 AM 52.4749 -33.1751 73° East  Level FlightAware Approximate
Sun 12:17:00 AM 52.5147 -32.9542 73° East  Level FlightAware Approximate
Sun 12:18:00 AM 52.5540 -32.7328 74° East  Level FlightAware Approximate
Sun 12:19:00 AM 52.5928 -32.5111 74° East  Level FlightAware Approximate
Sun 12:20:00 AM 52.6313 -32.2890 74° East  Level FlightAware Approximate
Sun 12:21:00 AM 52.6694 -32.0665 74° East  Level FlightAware Approximate
Sun 12:22:00 AM 52.7070 -31.8436 74° East  Level FlightAware Approximate
Sun 12:23:00 AM 52.7442 -31.6203 75° East  Level FlightAware Approximate
Sun 12:24:00 AM 52.7810 -31.3966 75° East  Level FlightAware Approximate
Sun 12:25:00 AM 52.8174 -31.1726 75° East  Level FlightAware Approximate
Sun 12:26:00 AM 52.8534 -30.9482 75° East  Level FlightAware Approximate
Sun 12:27:00 AM 52.8889 -30.7234 75° East  Level FlightAware Approximate
Sun 12:28:00 AM 52.9240 -30.4983 75° East  Level FlightAware Approximate
Sun 12:29:00 AM 52.9587 -30.2728 76° East  Level FlightAware Approximate
Sun 12:30:00 AM 52.9930 -30.0469 76° East  Level FlightAware Approximate
Sun 12:31:00 AM 53.0076 -29.8157 86° East  Level FlightAware Approximate
Sun 12:32:00 AM 53.0168 -29.5831 86° East  Level FlightAware Approximate
Sun 12:33:00 AM 53.0255 -29.3504 86° East  Level FlightAware Approximate
Sun 12:34:00 AM 53.0338 -29.1176 87° East  Level FlightAware Approximate
Sun 12:35:00 AM 53.0416 -28.8847 87° East  Level FlightAware Approximate
Sun 12:36:00 AM 53.0490 -28.6517 87° East  Level FlightAware Approximate
Sun 12:37:00 AM 53.0559 -28.4186 87° East  Level FlightAware Approximate
Sun 12:38:00 AM 53.0624 -28.1855 87° East  Level FlightAware Approximate
Sun 12:39:00 AM 53.0684 -27.9523 87° East  Level FlightAware Approximate
Sun 12:40:00 AM 53.0740 -27.7191 88° East  Level FlightAware Approximate
Sun 12:41:00 AM 53.0790 -27.4858 88° East  Level FlightAware Approximate
Sun 12:42:00 AM 53.0837 -27.2524 88° East  Level FlightAware Approximate
Sun 12:43:00 AM 53.0879 -27.0190 88° East  Level FlightAware Approximate
Sun 12:44:00 AM 53.0916 -26.7855 88° East  Level FlightAware Approximate
Sun 12:45:00 AM 53.0948 -26.5520 89° East  Level FlightAware Approximate
Sun 12:46:00 AM 53.0977 -26.3185 89° East  Level FlightAware Approximate
Sun 12:47:00 AM 53.1000 -26.0849 89° East  Level FlightAware Approximate
Sun 12:48:00 AM 53.1019 -25.8514 89° East  Level FlightAware Approximate
Sun 12:49:00 AM 53.1033 -25.6178 89° East  Level FlightAware Approximate
Sun 12:50:00 AM 53.1043 -25.3841 90° East  Level FlightAware Approximate
Sun 12:51:00 AM 53.1048 -25.1505 90° East  Level FlightAware Approximate
Sun 12:52:00 AM 53.1049 -24.9169 90° East  Level FlightAware Approximate
Sun 12:53:00 AM 53.1045 -24.6833 90° East  Level FlightAware Approximate
Sun 12:54:00 AM 53.1037 -24.4497 90° East  Level FlightAware Approximate
Sun 12:55:00 AM 53.1024 -24.2161 90° East  Level FlightAware Approximate
Sun 12:56:00 AM 53.1006 -23.9825 91° East  Level FlightAware Approximate
Sun 12:57:00 AM 53.0984 -23.7489 91° East  Level FlightAware Approximate
Sun 12:58:00 AM 53.0957 -23.5154 91° East  Level FlightAware Approximate
Sun 12:59:00 AM 53.0926 -23.2819 91° East  Level FlightAware Approximate
Sun 01:00:00 AM 53.0890 -23.0484 91° East  Level FlightAware Approximate
Sun 01:01:00 AM 53.0849 -22.8150 92° East  Level FlightAware Approximate
Sun 01:02:00 AM 53.0804 -22.5816 92° East  Level FlightAware Approximate
Sun 01:03:00 AM 53.0755 -22.3483 92° East  Level FlightAware Approximate
Sun 01:04:00 AM 53.0700 -22.1150 92° East  Level FlightAware Approximate
Sun 01:05:00 AM 53.0642 -21.8818 92° East  Level FlightAware Approximate
Sun 01:06:00 AM 53.0578 -21.6486 92° East  Level FlightAware Approximate
Sun 01:07:00 AM 53.0511 -21.4161 93° East  Level FlightAware Approximate
Sun 01:08:00 AM 53.0438 -21.1836 93° East  Level FlightAware Approximate
Sun 01:09:00 AM 53.0362 -20.9512 93° East  Level FlightAware Approximate
Sun 01:10:00 AM 53.0280 -20.7188 93° East  Level FlightAware Approximate
Sun 01:11:00 AM 53.0195 -20.4866 93° East  Level FlightAware Approximate
Sun 01:12:00 AM 53.0104 -20.2544 94° East  Level FlightAware Approximate
Sun 01:13:00 AM 53.0009 -20.0224 94° East  Level FlightAware Approximate
Sun 01:14:00 AM 52.9993 -19.7899 90° East  Level FlightAware Approximate
Sun 01:15:00 AM 52.9981 -19.5574 90° East  Level FlightAware Approximate
Sun 01:16:00 AM 52.9965 -19.3248 91° East  Level FlightAware Approximate
Sun 01:17:00 AM 52.9944 -19.0923 91° East  Level FlightAware Approximate
Sun 01:18:00 AM 52.9919 -18.8599 91° East  Level FlightAware Approximate
Sun 01:19:00 AM 52.9889 -18.6274 91° East  Level FlightAware Approximate
Sun 01:20:00 AM 52.9855 -18.3950 91° East  Level FlightAware Approximate
Sun 01:21:00 AM 52.9816 -18.1626 92° East  Level FlightAware Approximate
Sun 01:22:00 AM 52.9772 -17.9303 92° East  Level FlightAware Approximate
Sun 01:23:00 AM 52.9724 -17.6980 92° East  Level FlightAware Approximate
Sun 01:24:00 AM 52.9672 -17.4658 92° East  Level FlightAware Approximate
Sun 01:25:00 AM 52.9615 -17.2336 92° East  Level FlightAware Approximate
Sun 01:26:00 AM 52.9553 -17.0015 92° East  Level FlightAware Approximate
Sun 01:27:00 AM 52.9487 -16.7695 93° East  Level FlightAware Approximate
Sun 01:28:00 AM 52.9416 -16.5375 93° East  Level FlightAware Approximate
Sun 01:29:00 AM 52.9341 -16.3056 93° East  Level FlightAware Approximate
Sun 01:30:00 AM 52.9262 -16.0738 93° East  Level FlightAware Approximate
Sun 01:31:00 AM 52.9177 -15.8421 93° East  Level FlightAware Approximate
Sun 01:32:00 AM 52.9089 -15.6105 94° East  Level FlightAware Approximate
Sun 01:33:00 AM 52.8996 -15.3790 94° East  Level FlightAware Approximate
Sun 01:34:00 AM 52.8898 -15.1476 94° East  Level FlightAware Approximate
Sun 01:34:11 AM 52.8410 -12.6320 94° East 530 610 37,000  Level FlightAware ADS-B
Sun 01:34:51 AM 52.8280 -12.4760 98° East 530 610 37,000  Level FlightAware ADS-B
Sun 01:35:00 AM 52.8799 -14.9162 94° East  Level FlightAware Approximate
Sun 01:35:31 AM 52.8150 -12.3110 97° East 530 610 37,000  Level FlightAware ADS-B
Sun 01:36:16 AM 52.8000 -12.1300 98° East 530 610 37,000  Level FlightAware ADS-B
Sun 01:37:02 AM 52.7850 -11.9470 98° East 531 611 37,000  Level FlightAware ADS-B
Sun 01:37:41 AM 52.7720 -11.7880 98° East 532 612 37,000  Level FlightAware ADS-B
Sun 01:38:21 AM 52.7580 -11.6300 98° East 533 613 37,000  Level FlightAware ADS-B
Sun 01:39:06 AM 52.7420 -11.4450 98° East 533 613 37,000  Level FlightAware ADS-B
Sun 01:39:46 AM 52.7290 -11.2900 98° East 534 615 37,000  Level FlightAware ADS-B
Sun 01:40:26 AM 52.7140 -11.1260 99° East 535 616 37,000  Level FlightAware ADS-B
Sun 01:41:11 AM 52.6970 -10.9440 99° East 535 616 37,000  Level FlightAware ADS-B
Sun 01:41:56 AM 52.6810 -10.7660 98° East 533 613 37,000  Level FlightAware ADS-B
Sun 01:42:36 AM 52.6650 -10.6030 99° East 530 610 37,000  Level FlightAware ADS-B
Sun 01:43:16 AM 52.6500 -10.4450 99° East 529 609 37,000  Level FlightAware ADS-B
Sun 01:43:58 AM 52.6340 -10.2790 99° East 527 606 37,000  Level FlightAware ADS-B
Sun 01:44:42 AM 52.6160 -10.1030 99° East 527 606 37,000  Level FlightAware ADS-B
Sun 01:45:23 AM 52.6000 -9.9440 99° East 526 605 37,000  Level FlightAware ADS-B
Sun 01:46:03 AM 52.5840 -9.7860 99° East 526 605 37,000  Level FlightAware ADS-B
Sun 01:46:48 AM 52.5660 -9.6060 99° East 526 605 37,000  Level FlightAware ADS-B
Sun 01:47:29 AM 52.5490 -9.4470 100° East 526 605 37,000  Level FlightAware ADS-B
Sun 01:48:09 AM 52.5320 -9.2870 100° East 525 604 37,000  Level FlightAware ADS-B
Sun 01:48:54 AM 52.5130 -9.1130 100° East 525 604 37,000  Level FlightAware ADS-B
Sun 01:49:26 AM 52.4978 -8.9782 100° East 492 566 37,000  Level FlightAware UK
Sun 01:49:33 AM 52.4960 -8.9570 100° East 525 604 37,000  Level FlightAware ADS-B
Sun 01:50:14 AM 52.4790 -8.8000 100° East 525 604 37,000 -72 Level FlightAware ADS-B
Sun 01:50:56 AM 52.4594 -8.6290 100° East 488 562 36,900  Descending FlightAware UK
Sun 01:50:59 AM 52.4590 -8.6230 100° East 525 604 37,000 140 Climbing FlightAware ADS-B
Sun 01:51:39 AM 52.4410 -8.4680 101° East 527 606 37,000  Level FlightAware ADS-B
Sun 01:52:24 AM 52.4210 -8.2920 100° East 528 608 37,000  Level FlightAware ADS-B
Sun 01:52:56 AM 52.4052 -8.1582 100° East 490 564 37,000  Level FlightAware UK
Sun 01:53:04 AM 52.4020 -8.1380 100° East 526 605 37,000  Level FlightAware ADS-B
Sun 01:53:45 AM 52.3820 -7.9790 102° East 526 605 37,000 -73 Level FlightAware ADS-B
Sun 01:54:26 AM 52.3606 -7.8063 102° East 490 564 36,900  Descending FlightAware UK
Sun 01:54:30 AM 52.3590 -7.7940 102° East 529 609 37,000 128 Climbing FlightAware ADS-B
Sun 01:55:13 AM 52.3380 -7.6260 101° East 529 609 37,000  Level FlightAware ADS-B
Sun 01:55:56 AM 52.3170 -7.4630 102° East 528 608 37,000  Level FlightAware ADS-B
Sun 01:56:26 AM 52.3017 -7.3377 102° East 488 562 37,000  Level FlightAware UK
Sun 01:56:36 AM 52.2970 -7.3070 102° East 528 608 37,000  Level FlightAware ADS-B
Sun 01:57:20 AM 52.2740 -7.1390 103° East 528 608 37,000 -74 Level FlightAware ADS-B
Sun 01:57:57 AM 52.2548 -6.9876 103° East 494 568 36,900  Descending FlightAware UK
Sun 01:58:02 AM 52.2530 -6.9770 103° East 525 604 37,000 133 Climbing FlightAware ADS-B
Sun 01:58:42 AM 52.2340 -6.8230 101° East 525 604 37,000  Level FlightAware ADS-B
Sun 01:59:24 AM 52.2120 -6.6510 102° East 524 603 37,000  Level FlightAware ADS-B
Sun 01:59:57 AM 52.1965 -6.5243 102° East 494 568 37,000  Level FlightAware UK
Sun 02:00:08 AM 52.1920 -6.4910 102° East 524 603 37,000 -125 Level FlightAware ADS-B
Sun 02:00:45 AM 52.1727 -6.3397 102° East 494 568 36,900  Descending FlightAware UK
Sun 02:00:50 AM 52.1710 -6.3300 102° East 522 601 37,000 136 Climbing FlightAware ADS-B
Sun 02:01:29 AM 52.1510 -6.1720 102° East 521 600 37,000  Level FlightAware ADS-B
Sun 02:02:13 AM 52.1350 -6.0110 99° East 520 598 37,000  Level FlightAware ADS-B
Sun 02:02:58 AM 52.1200 -5.8400 98° East 519 597 37,000  Level FlightAware ADS-B
Sun 02:03:36 AM 52.1070 -5.6910 98° East 519 597 37,000  Level FlightAware ADS-B
Sun 02:04:22 AM 52.0930 -5.5130 97° East 518 596 37,000 -74 Level FlightAware ADS-B
Sun 02:04:57 AM 52.0806 -5.3671 97° East 490 564 36,900  Descending FlightAware UK
Sun 02:05:03 AM 52.0790 -5.3480 97° East 518 596 37,000  Climbing FlightAware ADS-B
Sun 02:05:33 AM 52.0691 -5.2288 97° East 494 568 36,900  Descending FlightAware UK
Sun 02:05:44 AM 52.0650 -5.1910 97° East 518 596 37,000 118 Climbing FlightAware ADS-B
Sun 02:06:24 AM 52.0520 -5.0380 98° East 517 595 37,000  Level FlightAware ADS-B
Sun 02:07:06 AM 52.0370 -4.8760 98° East 516 594 37,000  Level FlightAware ADS-B
Sun 02:07:09 AM 52.0361 -4.8612 98° East 488 562 37,000  Level FlightAware UK
Sun 02:07:39 AM 52.0257 -4.7457 98° East 492 566 37,000  Level FlightAware UK
Sun 02:07:50 AM 52.0220 -4.7080 98° East 516 594 37,000  Level FlightAware ADS-B
Sun 02:08:30 AM 52.0080 -4.5540 98° East 518 596 37,000  Level FlightAware ADS-B
Sun 02:09:16 AM 51.9910 -4.3770 99° East 519 597 37,000  Level FlightAware ADS-B
Sun 02:09:56 AM 51.9760 -4.2220 99° East 520 598 37,000  Level FlightAware ADS-B
Sun 02:10:42 AM 51.9587 -4.0450 99° East 521 600 37,000  Level FlightAware ADS-B
Sun 02:11:20 AM 51.9440 -3.8980 99° East 522 601 37,000  Level FlightAware ADS-B
Sun 02:11:43 AM 51.9354 -3.8116 99° East 523 602 37,000  Level FlightAware ADS-B
Sun 02:12:31 AM 51.9165 -3.6244 99° East 523 602 37,000  Level FlightAware ADS-B
Sun 02:13:07 AM 51.9024 -3.4878 99° East 525 604 37,000  Level FlightAware ADS-B
Sun 02:13:41 AM 51.8885 -3.3537 99° East 528 608 37,000  Level FlightAware ADS-B
Sun 02:14:25 AM 51.8707 -3.1843 100° East 528 608 37,000  Level FlightAware ADS-B
Sun 02:14:57 AM 51.8574 -3.0599 100° East 529 609 37,000  Level FlightAware ADS-B
Sun 02:15:29 AM 51.8439 -2.9348 100° East 530 610 37,000  Level FlightAware ADS-B
Sun 02:15:59 AM 51.8310 -2.8162 100° East 529 609 37,000  Level FlightAware ADS-B
Sun 02:16:30 AM 51.8180 -2.6983 100° East 521 600 37,000  Level FlightAware ADS-B
Sun 02:17:00 AM 51.8052 -2.5832 100° East 522 601 37,000  Level FlightAware ADS-B
Sun 02:17:31 AM 51.7919 -2.4648 100° East 524 603 37,000  Level FlightAware ADS-B
Sun 02:18:02 AM 51.7783 -2.3448 100° East 525 604 37,000  Level FlightAware ADS-B
Sun 02:18:33 AM 51.7649 -2.2274 100° East 525 604 37,000  Level FlightAware ADS-B
Sun 02:19:09 AM 51.7491 -2.0899 100° East 526 605 37,000  Level FlightAware ADS-B
Sun 02:19:40 AM 51.7349 -1.9677 101° East 526 605 37,000  Level FlightAware ADS-B
Sun 02:20:11 AM 51.7210 -1.8488 101° East 526 605 37,000  Level FlightAware ADS-B
Sun 02:20:42 AM 51.7071 -1.7320 101° East 528 608 37,000  Level FlightAware ADS-B
Sun 02:21:13 AM 51.6925 -1.6116 101° East 527 606 37,000  Level FlightAware ADS-B
Sun 02:21:44 AM 51.6780 -1.4918 101° East 527 606 37,000  Level FlightAware ADS-B
Sun 02:22:15 AM 51.6635 -1.3725 101° East 527 606 37,000  Level FlightAware ADS-B
Sun 02:22:46 AM 51.6491 -1.2555 101° East 527 606 37,000  Level FlightAware ADS-B
Sun 02:23:16 AM 51.6346 -1.1388 101° East 527 606 37,000  Level FlightAware ADS-B
Sun 02:23:47 AM 51.6200 -1.0226 101° East 528 608 37,000  Level FlightAware ADS-B
Sun 02:24:17 AM 51.6053 -0.9058 101° East 530 610 37,000  Level FlightAware ADS-B
Sun 02:24:48 AM 51.5902 -0.7868 101° East 530 610 37,000  Level FlightAware ADS-B
Sun 02:25:20 AM 51.5744 -0.6637 102° East 530 610 37,000  Level FlightAware ADS-B
Sun 02:25:50 AM 51.5593 -0.5479 102° East 531 611 37,000  Level FlightAware ADS-B
Sun 02:26:21 AM 51.5437 -0.4285 102° East 532 612 37,000  Level FlightAware ADS-B
Sun 02:26:51 AM 51.5284 -0.3127 102° East 532 612 37,000  Level FlightAware ADS-B
Sun 02:27:22 AM 51.5130 -0.1962 102° East 531 611 37,000  Level FlightAware ADS-B
Sun 02:27:55 AM 51.4959 -0.0690 102° East 530 610 37,000 94 Level FlightAware ADS-B
Sun 02:28:26 AM 51.4798 0.0500 102° East 528 608 37,100 290 Climbing FlightAware ADS-B
Sun 02:28:57 AM 51.4637 0.1681 102° East 524 603 37,300 393 Climbing FlightAware ADS-B
Sun 02:29:27 AM 51.4480 0.2822 102° East 519 597 37,500 393 Climbing FlightAware ADS-B
Sun 02:29:58 AM 51.4323 0.3959 102° East 515 593 37,700 375 Climbing FlightAware ADS-B
Sun 02:30:31 AM 51.4150 0.5205 103° East 512 589 37,900 277 Climbing FlightAware ADS-B
Sun 02:31:03 AM 51.3985 0.6371 103° East 517 595 38,000 94 Climbing FlightAware ADS-B
Sun 02:31:35 AM 51.3816 0.7564 103° East 522 601 38,000  Level FlightAware ADS-B
Sun 02:32:06 AM 51.3647 0.8742 103° East 522 601 38,000  Level FlightAware ADS-B
Sun 02:32:36 AM 51.3486 0.9863 103° East 521 600 38,000  Level FlightAware ADS-B
Sun 02:33:07 AM 51.3319 1.1017 103° East 522 601 38,000  Level FlightAware ADS-B
Sun 02:33:55 AM 51.3054 1.2818 103° East 523 602 38,000 -72 Level FlightAware ADS-B
Sun 02:34:30 AM 51.2845 1.4146 103° East 498 573 37,900 -92 Descending FlightAware UK
Sun 02:35:00 AM 51.2662 1.5260 105° East 496 571 37,900 150 Level FlightAware UK
Sun 02:35:10 AM 51.2620 1.5540 105° East 522 601 38,000 143 Climbing FlightAware ADS-B
Sun 02:35:42 AM 51.2420 1.6740 105° East 521 600 38,000 -182 Level FlightAware ADS-B
Sun 02:35:43 AM 51.2408 1.6827 105° East 494 568 37,900 -162 Descending FlightAware UK
Sun 02:36:19 AM 51.2191 1.8165 105° East 492 566 37,900 158 Level FlightAware UK
Sun 02:36:21 AM 51.2180 1.8210 105° East 522 601 38,000  Climbing FlightAware ADS-B
Sun 02:36:55 AM 51.1973 1.9503 105° East 494 568 37,900  Descending FlightAware UK
Sun 02:37:05 AM 51.1920 1.9830 105° East 522 601 38,000 111 Climbing FlightAware ADS-B
Sun 02:37:49 AM 51.1640 2.1490 105° East 522 601 38,000  Level FlightAware ADS-B
Sun 02:38:29 AM 51.1400 2.2970 104° East 521 600 38,000  Level FlightAware ADS-B
Sun 02:39:13 AM 51.1122 2.4624 104° East 500 575 38,000  Level FlightAware UK
Sun 02:39:16 AM 51.1100 2.4710 104° East 519 597 38,000 -143 Level FlightAware ADS-B
Sun 02:39:55 AM 51.0857 2.6176 104° East 502 578 37,900  Descending FlightAware UK
Sun 02:39:56 AM 51.0860 2.6170 104° East 519 597 38,000 100 Climbing FlightAware ADS-B
Sun 02:40:55 AM 51.0479 2.8379 104° East 498 573 38,000 -67 Level FlightAware UK
Sun 02:41:25 AM 51.0290 2.9471 105° East 496 571 37,900  Descending FlightAware UK
Sun 02:42:01 AM 51.0061 3.0778 106° East 494 568 38,000 143 Climbing FlightAware UK
Sun 02:42:07 AM 51.0180 3.0110 106° East 513 590 38,000  Level FlightAware ADS-B
Sun 02:42:52 AM 50.9750 3.2540 106° East 516 594 38,000  Level FlightAware ADS-B
Sun 02:43:30 AM 50.9490 3.3970 106° East 517 595 38,000  Level FlightAware ADS-B
Sun 02:44:17 AM 50.9200 3.5620 106° East 517 595 38,000  Level FlightAware ADS-B
Sun 02:44:49 AM 50.8967 3.6888 106° East 494 568 38,000  Level FlightAware UK
Sun 02:44:56 AM 50.8930 3.7090 106° East 518 596 38,000  Level FlightAware ADS-B
Sun 02:45:35 AM 50.8670 3.8550 106° East 517 595 38,000  Level FlightAware ADS-B
Sun 02:46:19 AM 50.8370 4.0140 107° East 516 594 38,000  Level FlightAware ADS-B
Sun 02:47:03 AM 50.8080 4.1730 106° East 517 595 38,000  Level FlightAware ADS-B
Sun 02:47:49 AM 50.7790 4.3250 107° East 516 594 38,000  Level FlightAware ADS-B
Sun 02:48:29 AM 50.7510 4.4760 106° East 516 594 38,000 -411 Level FlightAware ADS-B
Sun 02:49:02 AM 50.7277 4.6007 106° East 490 564 37,500 -878 Descending FlightAware UK
Sun 02:49:10 AM 50.7230 4.6250 106° East 517 595 37,400 -600 Descending FlightAware ADS-B
Sun 02:49:52 AM 50.6950 4.7810 106° East 519 597 37,000 -286 Descending FlightAware ADS-B
Sun 02:50:34 AM 50.6660 4.9310 107° East 519 597 37,000  Level FlightAware ADS-B
Sun 02:51:18 AM 50.6340 5.0880 108° East 520 598 37,000  Level FlightAware ADS-B
Sun 02:51:59 AM 50.6050 5.2380 107° East 520 598 37,000  Level FlightAware ADS-B
Sun 02:52:37 AM 50.5780 5.3700 108° East 519 597 37,000 -786 Level FlightAware ADS-B
Sun 02:53:23 AM 50.5460 5.5350 107° East 503 579 35,900 -2,372 Descending FlightAware ADS-B
Sun 02:54:03 AM 50.5170 5.6760 108° East 513 590 33,600 -3,237 Descending FlightAware ADS-B
Sun 02:54:39 AM 50.4910 5.8070 107° East 530 610 31,800 -2,376 Descending FlightAware ADS-B
Sun 02:55:44 AM 50.4420 6.0420 108° East 527 606 29,600 -1,886 Descending FlightAware ADS-B
Sun 02:56:24 AM 50.4130 6.1850 108° East 492 566 28,500 -1,610 Descending FlightAware ADS-B
Sun 02:57:06 AM 50.3850 6.3210 108° East 457 526 27,400 -1,537 Descending FlightAware ADS-B
Sun 02:57:46 AM 50.3710 6.4550 99° East 463 533 26,400 -1,379 Descending FlightAware ADS-B
Sun 02:58:33 AM 50.3590 6.6060 97° East 449 517 25,400 -1,241 Descending FlightAware ADS-B
Sun 02:59:13 AM 50.3490 6.7340 97° East 445 512 24,600 -1,244 Descending FlightAware ADS-B
Sun 02:59:55 AM 50.3400 6.8690 96° East 434 499 23,700 -1,297 Descending FlightAware ADS-B
Sun 03:00:27 AM 50.3320 6.9690 97° East 428 493 23,000 -1,541 Descending FlightAware ADS-B
Sun 03:01:09 AM 50.3240 7.0910 96° East 421 484 21,800 -1,977 Descending FlightAware ADS-B
Sun 03:01:55 AM 50.3130 7.2280 97° East 412 474 20,100 -2,259 Descending FlightAware ADS-B
Sun 03:02:34 AM 50.3040 7.3440 97° East 406 467 18,600 -2,329 Descending FlightAware ADS-B
Sun 03:03:20 AM 50.2810 7.4670 106° East 393 452 16,800 -2,400 Descending FlightAware ADS-B
Sun 03:03:29 AM 50.2720 7.4850 128° Southeast 356 410 16,400 -3,176 Descending FlightAware ADS-B
Sun 03:04:11 AM 50.2200 7.5520 140° Southeast 346 398 14,100 -3,073 Descending FlightAware ADS-B
Sun 03:04:51 AM 50.1710 7.6120 142° Southeast 330 380 12,200 -2,188 Descending FlightAware ADS-B
Sun 03:05:36 AM 50.1120 7.6670 149° Southeast 329 379 11,000 -847 Descending FlightAware ADS-B
Sun 03:06:16 AM 50.0680 7.7420 132° Southeast 344 396 11,000  Level FlightAware ADS-B
Sun 03:06:46 AM 50.0560 7.8140 105° East 366 421 11,000  Level FlightAware ADS-B
Sun 03:07:31 AM 50.0740 7.9330 77° East 369 425 11,000  Level FlightAware ADS-B
Sun 03:08:06 AM 50.0910 8.0190 73° East 367 422 11,000  Level FlightAware ADS-B
Sun 03:08:56 AM 50.1140 8.1450 74° East 369 425 11,000 -67 Level FlightAware ADS-B
Sun 03:09:36 AM 50.1330 8.2490 74° East 350 403 10,900 -525 Descending FlightAware ADS-B
Sun 03:10:16 AM 50.1490 8.3400 75° East 326 375 10,300 -514 Descending FlightAware ADS-B
Sun 03:11:21 AM 50.1720 8.4700 75° East 325 374 10,000 -1,347 Descending FlightAware ADS-B
Sun 03:11:54 AM 50.1890 8.5610 74° East 320 368 8,100 -2,750 Descending FlightAware ADS-B
Sun 03:12:09 AM 50.1940 8.5910 75° East 314 361 7,800 -1,200 Descending FlightAware ADS-B
Sun 03:12:39 AM 50.2060 8.6570 74° East 309 356 7,200 -1,200 Descending FlightAware ADS-B
Sun 03:13:04 AM 50.2160 8.7130 74° East 306 352 6,700 -1,158 Descending FlightAware ADS-B
Sun 03:13:36 AM 50.2280 8.7800 74° East 305 351 6,100 -737 Descending FlightAware ADS-B
Sun 03:14:01 AM 50.2370 8.8350 76° East 305 351 6,000 -120 Descending FlightAware ADS-B
Sun 03:14:26 AM 50.2450 8.8760 73° East 283 326 6,000 -367 Level FlightAware ADS-B
Sun 03:14:50 AM 50.2540 8.9280 75° East 271 312 5,700 -1,053 Descending FlightAware ADS-B
Sun 03:15:23 AM 50.2640 8.9870 75° East 272 313 5,000 -1,135 Descending FlightAware ADS-B
Sun 03:16:04 AM 50.2490 9.0540 109° East 242 278 4,300 -1,132 Descending FlightAware ADS-B
Sun 03:16:16 AM 50.2350 9.0600 165° South 223 257 4,000 -409 Descending FlightAware ADS-B
Sun 03:16:48 AM 50.2070 9.0380 207° Southwest 208 239 4,000  Level FlightAware ADS-B
Sun 03:17:19 AM 50.1840 9.0110 217° Southwest 204 235 4,000  Level FlightAware ADS-B
Sun 03:17:48 AM 50.1610 8.9830 218° Southwest 203 234 4,000  Level FlightAware ADS-B
Sun 03:18:13 AM 50.1460 8.9540 231° Southwest 201 231 4,000  Level FlightAware ADS-B
Sun 03:18:39 AM 50.1370 8.9210 247° West 183 211 4,000  Level FlightAware ADS-B
Sun 03:19:08 AM 50.1300 8.8860 253° West 160 184 4,000  Level FlightAware ADS-B
Sun 03:19:34 AM 50.1240 8.8610 249° West 138 159 4,000  Level FlightAware ADS-B
Sun 03:20:03 AM 50.1170 8.8340 248° West 139 160 4,000  Level FlightAware ADS-B
Sun 03:20:18 AM 50.1140 8.8190 253° West 138 159 4,000 -98 Level FlightAware ADS-B
Sun 03:21:04 AM 50.1040 8.7760 250° West 146 168 3,900 -343 Descending FlightAware ADS-B
Sun 03:21:28 AM 50.0980 8.7530 248° West 143 165 3,600 -857 Descending FlightAware ADS-B
Sun 03:21:53 AM 50.0920 8.7280 249° West 140 161 3,200 -857 Descending FlightAware ADS-B
Sun 03:22:24 AM 50.0850 8.7000 249° West 147 169 2,800 -783 Descending FlightAware ADS-B
Sun 03:22:39 AM 50.0820 8.6850 253° West 150 173 2,600 -955 Descending FlightAware ADS-B
Sun 03:23:08 AM 50.0740 8.6540 248° West 152 175 2,100 -982 Descending FlightAware ADS-B
Sun 03:23:34 AM 50.0690 8.6290 253° West 139 160 1,700 -764 Descending FlightAware ADS-B
Sun 03:24:03 AM 50.0620 8.6010 249° West 137 158 1,400 -682 Descending FlightAware ADS-B
Sun 03:24:18 AM 50.0590 8.5880 250° West 132 152 1,200 -471 Descending FlightAware ADS-B
Sun 03:24:54 AM 50.0520 8.5600 249° West 132 152 1,000 -333 Descending FlightAware ADS-B

Login

Don't have an account? Register now (free) for customized features, flight alerts, and more!